TimeEST,TemperatureF,Dew PointF,Humidity,Sea Level PressureIn,VisibilityMPH,Wind Direction,Wind SpeedMPH,Gust SpeedMPH,PrecipitationIn,Events,Conditions,WindDirDegrees,DateUTC
12:15 AM,12.2,3.2,67,30.22,10.0,Calm,Calm,-,N/A,,Clear,0,2013-02-02 05:15:00
12:35 AM,12.2,5.0,73,30.21,10.0,SW,4.6,-,N/A,,Clear,230,2013-02-02 05:35:00
12:55 AM,14.0,5.0,67,30.20,10.0,Variable,4.6,-,N/A,,Clear,0,2013-02-02 05:55:00
1:15 AM,14.0,5.0,67,30.20,10.0,SW,5.8,-,N/A,,Clear,230,2013-02-02 06:15:00
1:35 AM,14.0,5.0,67,30.18,10.0,WSW,5.8,-,N/A,,Clear,240,2013-02-02 06:35:00
1:55 AM,14.0,6.8,73,30.17,10.0,SW,4.6,-,N/A,,Clear,230,2013-02-02 06:55:00
2:15 AM,15.8,6.8,68,30.18,10.0,WSW,5.8,-,N/A,,Clear,250,2013-02-02 07:15:00
2:35 AM,14.0,6.8,73,30.18,10.0,WSW,6.9,-,N/A,,Clear,250,2013-02-02 07:35:00
2:55 AM,14.0,6.8,73,30.19,10.0,WSW,5.8,-,N/A,,Clear,240,2013-02-02 07:55:00
3:15 AM,14.0,6.8,73,30.18,10.0,SW,3.5,-,N/A,,Clear,230,2013-02-02 08:15:00
3:35 AM,15.8,6.8,68,30.19,10.0,SW,3.5,-,N/A,,Clear,230,2013-02-02 08:35:00
4:15 AM,15.8,6.8,68,30.17,10.0,Variable,3.5,-,N/A,,Clear,0,2013-02-02 09:15:00
4:35 AM,14.0,6.8,73,30.18,10.0,Calm,Calm,-,N/A,,Clear,0,2013-02-02 09:35:00
4:55 AM,12.2,8.6,85,30.17,10.0,Variable,3.5,-,N/A,,Clear,0,2013-02-02 09:55:00
5:15 AM,12.2,8.6,85,30.16,10.0,Variable,3.5,-,N/A,,Clear,0,2013-02-02 10:15:00
5:35 AM,12.2,6.8,79,30.17,10.0,Variable,3.5,-,N/A,,Clear,0,2013-02-02 10:35:00
5:55 AM,14.0,6.8,73,30.16,10.0,South,4.6,-,N/A,,Clear,180,2013-02-02 10:55:00
6:15 AM,14.0,5.0,67,30.16,10.0,South,4.6,-,N/A,,Clear,180,2013-02-02 11:15:00
6:35 AM,12.2,6.8,79,30.17,10.0,South,3.5,-,N/A,,Clear,170,2013-02-02 11:35:00
6:55 AM,14.0,6.8,73,30.16,10.0,South,3.5,-,N/A,,Clear,180,2013-02-02 11:55:00
7:15 AM,14.0,6.8,73,30.16,10.0,Variable,3.5,-,N/A,,Clear,0,2013-02-02 12:15:00
7:35 AM,15.8,3.2,58,30.16,10.0,Variable,3.5,-,N/A,,Partly Cloudy,0,2013-02-02 12:35:00
7:55 AM,17.6,3.2,53,30.15,10.0,Variable,3.5,-,N/A,,Clear,0,2013-02-02 12:55:00
8:15 AM,17.6,5.0,58,30.16,10.0,Calm,Calm,-,N/A,,Clear,0,2013-02-02 13:15:00
8:35 AM,17.6,5.0,58,30.15,10.0,Calm,Calm,-,N/A,,Clear,0,2013-02-02 13:35:00
8:55 AM,19.4,3.2,49,30.16,10.0,SW,4.6,-,N/A,,Clear,220,2013-02-02 13:55:00
9:15 AM,17.6,10.4,73,30.14,7.0,Variable,4.6,-,N/A,,Clear,0,2013-02-02 14:15:00
9:35 AM,19.4,10.4,68,30.14,10.0,SW,3.5,-,N/A,,Clear,230,2013-02-02 14:35:00
9:55 AM,19.4,10.4,68,30.13,10.0,Variable,3.5,-,N/A,,Clear,0,2013-02-02 14:55:00
10:15 AM,19.4,12.2,74,30.12,10.0,Calm,Calm,-,N/A,,Clear,0,2013-02-02 15:15:00
10:35 AM,19.4,10.4,68,30.10,10.0,Calm,Calm,-,N/A,,Clear,0,2013-02-02 15:35:00
10:55 AM,21.2,12.2,68,30.10,10.0,Variable,3.5,-,N/A,,Clear,0,2013-02-02 15:55:00
11:15 AM,23.0,12.2,63,30.11,10.0,Variable,3.5,-,N/A,,Partly Cloudy,0,2013-02-02 16:15:00
11:35 AM,24.8,10.4,54,30.11,10.0,West,10.4,-,N/A,,Clear,270,2013-02-02 16:35:00
11:55 AM,23.0,12.2,63,30.11,3.0,West,9.2,-,N/A,,Clear,260,2013-02-02 16:55:00
12:15 PM,23.0,17.6,80,30.11,1.8,WSW,10.4,-,N/A,,Clear,250,2013-02-02 17:15:00
12:35 PM,21.2,19.4,93,30.06,2.0,Variable,6.9,-,N/A,,Clear,0,2013-02-02 17:35:00
12:55 PM,21.2,21.2,100,30.05,3.0,Variable,4.6,-,N/A,,Clear,0,2013-02-02 17:55:00
1:15 PM,21.2,21.2,100,30.04,2.0,Variable,3.5,-,N/A,,Unknown,0,2013-02-02 18:15:00
1:35 PM,23.0,23.0,100,30.02,1.5,SW,4.6,-,N/A,,Clear,230,2013-02-02 18:35:00
1:55 PM,23.0,23.0,100,30.00,2.5,Variable,3.5,-,N/A,,Clear,0,2013-02-02 18:55:00
2:15 PM,24.8,24.8,100,30.00,1.2,Variable,3.5,-,N/A,,Clear,0,2013-02-02 19:15:00
2:35 PM,24.8,23.0,93,29.99,3.0,Variable,5.8,-,N/A,,Clear,0,2013-02-02 19:35:00
2:55 PM,24.8,24.8,100,29.99,10.0,Variable,3.5,-,N/A,,Unknown,0,2013-02-02 19:55:00
3:15 PM,24.8,24.8,100,29.98,6.0,Variable,5.8,-,N/A,,Unknown,0,2013-02-02 20:15:00
3:35 PM,24.8,24.8,100,29.96,2.0,WSW,10.4,-,N/A,,Clear,240,2013-02-02 20:35:00
3:55 PM,24.8,24.8,100,29.97,1.2,WSW,10.4,-,N/A,,Clear,250,2013-02-02 20:55:00
4:15 PM,24.8,24.8,100,29.97,1.0,West,13.8,-,N/A,,Unknown,260,2013-02-02 21:15:00
4:35 PM,24.8,24.8,100,29.96,2.5,WSW,8.1,-,N/A,,Clear,240,2013-02-02 21:35:00
4:55 PM,24.8,24.8,100,29.97,5.0,Variable,6.9,-,N/A,,Unknown,0,2013-02-02 21:55:00
5:15 PM,24.8,23.0,93,29.97,1.5,Variable,6.9,-,N/A,,Unknown,0,2013-02-02 22:15:00
5:35 PM,24.8,24.8,100,29.95,2.0,SW,8.1,-,N/A,,Clear,230,2013-02-02 22:35:00
5:55 PM,24.8,24.8,100,29.96,2.0,WSW,9.2,-,N/A,,Clear,250,2013-02-02 22:55:00
6:15 PM,24.8,24.8,100,29.95,10.0,SW,8.1,-,N/A,,Scattered Clouds,230,2013-02-02 23:15:00
6:35 PM,24.8,24.8,100,29.95,10.0,WSW,9.2,-,N/A,,Scattered Clouds,240,2013-02-02 23:35:00
6:55 PM,24.8,24.8,100,29.95,10.0,West,8.1,-,N/A,,Unknown,260,2013-02-02 23:55:00
7:15 PM,24.8,24.8,100,29.96,10.0,Variable,4.6,-,N/A,,Unknown,0,2013-02-03 00:15:00
7:35 PM,26.6,24.8,93,29.96,10.0,Variable,6.9,-,N/A,,Partly Cloudy,0,2013-02-03 00:35:00
7:55 PM,26.6,24.8,93,29.96,9.0,WSW,6.9,-,N/A,,Partly Cloudy,250,2013-02-03 00:55:00
8:15 PM,26.6,24.8,93,29.96,5.0,West,8.1,-,N/A,,Clear,260,2013-02-03 01:15:00
8:35 PM,26.6,24.8,93,29.95,5.0,WSW,8.1,-,N/A,,Clear,250,2013-02-03 01:35:00
8:55 PM,26.6,24.8,93,29.96,4.0,WSW,6.9,-,N/A,,Clear,250,2013-02-03 01:55:00
9:15 PM,24.8,24.8,100,29.97,3.0,Variable,6.9,-,N/A,,Unknown,0,2013-02-03 02:15:00
9:35 PM,24.8,24.8,100,29.96,10.0,WSW,8.1,-,N/A,,Partly Cloudy,240,2013-02-03 02:35:00
9:55 PM,24.8,24.8,100,29.96,5.0,WSW,9.2,-,N/A,,Partly Cloudy,240,2013-02-03 02:55:00
10:15 PM,24.8,24.8,100,29.95,3.0,WSW,9.2,-,N/A,,Unknown,240,2013-02-03 03:15:00
10:35 PM,26.6,26.6,100,29.95,6.0,Variable,6.9,-,N/A,,Unknown,0,2013-02-03 03:35:00
10:55 PM,26.6,24.8,93,29.95,5.0,WSW,9.2,-,N/A,,Unknown,240,2013-02-03 03:55:00
11:55 PM,26.6,26.6,100,29.94,3.0,Variable,6.9,-,N/A,,Clear,0,2013-02-03 04:55:00